sensor_id;sensor_type;location;lat;lon;timestamp;P1;durP1;ratioP1;P2;durP2;ratioP2
69937;SDS011;57248;47.320;15.998;2023-04-25T00:00:07;0.70;;;0.10;;
69937;SDS011;57248;47.320;15.998;2023-04-25T00:02:40;0.93;;;0.10;;
69937;SDS011;57248;47.320;15.998;2023-04-25T00:05:13;2.20;;;0.10;;
69937;SDS011;57248;47.320;15.998;2023-04-25T00:07:46;2.00;;;0.32;;
69937;SDS011;57248;47.320;15.998;2023-04-25T00:10:19;1.53;;;0.30;;
69937;SDS011;57248;47.320;15.998;2023-04-25T00:12:52;2.08;;;0.30;;
69937;SDS011;57248;47.320;15.998;2023-04-25T00:15:24;1.48;;;0.30;;
69937;SDS011;57248;47.320;15.998;2023-04-25T00:18:03;1.85;;;0.40;;
69937;SDS011;57248;47.320;15.998;2023-04-25T00:20:35;2.58;;;0.30;;
69937;SDS011;57248;47.320;15.998;2023-04-25T00:23:07;1.73;;;0.30;;
69937;SDS011;57248;47.320;15.998;2023-04-25T00:25:32;1.55;;;0.22;;
69937;SDS011;57248;47.320;15.998;2023-04-25T00:28:04;1.50;;;0.20;;
69937;SDS011;57248;47.320;15.998;2023-04-25T00:30:29;1.20;;;0.20;;
69937;SDS011;57248;47.320;15.998;2023-04-25T00:33:01;1.87;;;0.20;;
69937;SDS011;57248;47.320;15.998;2023-04-25T00:35:33;1.75;;;0.38;;
69937;SDS011;57248;47.320;15.998;2023-04-25T00:38:06;1.58;;;0.30;;
69937;SDS011;57248;47.320;15.998;2023-04-25T00:40:38;1.13;;;0.20;;
69937;SDS011;57248;47.320;15.998;2023-04-25T00:43:11;1.60;;;0.20;;
69937;SDS011;57248;47.320;15.998;2023-04-25T00:45:43;2.40;;;0.10;;
69937;SDS011;57248;47.320;15.998;2023-04-25T00:48:16;2.20;;;0.20;;
69937;SDS011;57248;47.320;15.998;2023-04-25T00:50:53;1.35;;;0.25;;
69937;SDS011;57248;47.320;15.998;2023-04-25T00:53:26;1.20;;;0.20;;
69937;SDS011;57248;47.320;15.998;2023-04-25T00:55:59;2.00;;;0.20;;
69937;SDS011;57248;47.320;15.998;2023-04-25T00:58:31;1.87;;;0.30;;
69937;SDS011;57248;47.320;15.998;2023-04-25T01:01:03;2.13;;;0.20;;
69937;SDS011;57248;47.320;15.998;2023-04-25T01:03:35;1.67;;;0.30;;
69937;SDS011;57248;47.320;15.998;2023-04-25T01:06:12;1.20;;;0.20;;
69937;SDS011;57248;47.320;15.998;2023-04-25T01:08:44;1.33;;;0.30;;
69937;SDS011;57248;47.320;15.998;2023-04-25T01:11:16;2.37;;;0.30;;
69937;SDS011;57248;47.320;15.998;2023-04-25T01:13:56;1.75;;;0.30;;
69937;SDS011;57248;47.320;15.998;2023-04-25T01:16:28;1.90;;;0.40;;
69937;SDS011;57248;47.320;15.998;2023-04-25T01:19:10;4.00;;;0.38;;
69937;SDS011;57248;47.320;15.998;2023-04-25T01:21:45;1.67;;;0.30;;
69937;SDS011;57248;47.320;15.998;2023-04-25T01:24:17;2.23;;;0.40;;
69937;SDS011;57248;47.320;15.998;2023-04-25T01:26:50;1.50;;;0.30;;
69937;SDS011;57248;47.320;15.998;2023-04-25T01:29:20;1.17;;;0.20;;
69937;SDS011;57248;47.320;15.998;2023-04-25T01:31:52;0.88;;;0.10;;
69937;SDS011;57248;47.320;15.998;2023-04-25T01:34:25;0.85;;;0.15;;
69937;SDS011;57248;47.320;15.998;2023-04-25T01:36:57;1.53;;;0.17;;
69937;SDS011;57248;47.320;15.998;2023-04-25T01:39:31;2.35;;;0.20;;
69937;SDS011;57248;47.320;15.998;2023-04-25T01:42:04;1.20;;;0.10;;
69937;SDS011;57248;47.320;15.998;2023-04-25T01:44:37;2.22;;;0.10;;
69937;SDS011;57248;47.320;15.998;2023-04-25T01:47:09;1.10;;;0.10;;
69937;SDS011;57248;47.320;15.998;2023-04-25T01:49:41;1.73;;;0.10;;
69937;SDS011;57248;47.320;15.998;2023-04-25T01:52:14;0.90;;;0.10;;
69937;SDS011;57248;47.320;15.998;2023-04-25T01:54:46;1.15;;;0.10;;
69937;SDS011;57248;47.320;15.998;2023-04-25T01:57:19;0.90;;;0.10;;
69937;SDS011;57248;47.320;15.998;2023-04-25T01:59:53;1.02;;;0.10;;
69937;SDS011;57248;47.320;15.998;2023-04-25T02:02:39;1.10;;;0.10;;
69937;SDS011;57248;47.320;15.998;2023-04-25T02:05:21;1.45;;;0.10;;
69937;SDS011;57248;47.320;15.998;2023-04-25T02:07:54;2.17;;;0.20;;
69937;SDS011;57248;47.320;15.998;2023-04-25T02:10:26;3.00;;;0.10;;
69937;SDS011;57248;47.320;15.998;2023-04-25T02:13:18;0.90;;;0.10;;
69937;SDS011;57248;47.320;15.998;2023-04-25T02:16:04;1.80;;;0.20;;
69937;SDS011;57248;47.320;15.998;2023-04-25T02:18:37;1.15;;;0.10;;
69937;SDS011;57248;47.320;15.998;2023-04-25T02:21:10;1.15;;;0.10;;
69937;SDS011;57248;47.320;15.998;2023-04-25T02:23:43;1.30;;;0.10;;
69937;SDS011;57248;47.320;15.998;2023-04-25T02:26:17;1.23;;;0.10;;
69937;SDS011;57248;47.320;15.998;2023-04-25T02:28:50;2.33;;;0.10;;
69937;SDS011;57248;47.320;15.998;2023-04-25T02:31:18;1.30;;;0.10;;
69937;SDS011;57248;47.320;15.998;2023-04-25T02:33:51;1.00;;;0.10;;
69937;SDS011;57248;47.320;15.998;2023-04-25T02:36:23;1.10;;;0.10;;
69937;SDS011;57248;47.320;15.998;2023-04-25T02:38:55;1.38;;;0.10;;
69937;SDS011;57248;47.320;15.998;2023-04-25T02:41:27;1.67;;;0.10;;
69937;SDS011;57248;47.320;15.998;2023-04-25T02:43:59;1.13;;;0.10;;
69937;SDS011;57248;47.320;15.998;2023-04-25T02:46:31;1.40;;;0.20;;
69937;SDS011;57248;47.320;15.998;2023-04-25T02:49:03;1.60;;;0.20;;
69937;SDS011;57248;47.320;15.998;2023-04-25T02:51:29;0.97;;;0.10;;
69937;SDS011;57248;47.320;15.998;2023-04-25T02:54:02;0.88;;;0.10;;
69937;SDS011;57248;47.320;15.998;2023-04-25T02:56:39;5.63;;;0.30;;
69937;SDS011;57248;47.320;15.998;2023-04-25T02:59:17;2.35;;;0.10;;
69937;SDS011;57248;47.320;15.998;2023-04-25T03:01:49;1.42;;;0.20;;
69937;SDS011;57248;47.320;15.998;2023-04-25T03:04:14;2.07;;;0.30;;
69937;SDS011;57248;47.320;15.998;2023-04-25T03:06:47;1.98;;;0.20;;
69937;SDS011;57248;47.320;15.998;2023-04-25T03:09:20;1.38;;;0.20;;
69937;SDS011;57248;47.320;15.998;2023-04-25T03:11:52;1.40;;;0.20;;
69937;SDS011;57248;47.320;15.998;2023-04-25T03:14:24;2.50;;;0.20;;
69937;SDS011;57248;47.320;15.998;2023-04-25T03:17:10;1.50;;;0.20;;
69937;SDS011;57248;47.320;15.998;2023-04-25T03:19:42;1.75;;;0.20;;
69937;SDS011;57248;47.320;15.998;2023-04-25T03:22:14;2.13;;;0.25;;
69937;SDS011;57248;47.320;15.998;2023-04-25T03:24:47;1.53;;;0.10;;
69937;SDS011;57248;47.320;15.998;2023-04-25T03:27:13;2.35;;;0.30;;
69937;SDS011;57248;47.320;15.998;2023-04-25T03:29:45;1.95;;;0.20;;
69937;SDS011;57248;47.320;15.998;2023-04-25T03:32:18;1.27;;;0.10;;
69937;SDS011;57248;47.320;15.998;2023-04-25T03:34:50;1.83;;;0.55;;
69937;SDS011;57248;47.320;15.998;2023-04-25T03:37:24;1.53;;;0.10;;
69937;SDS011;57248;47.320;15.998;2023-04-25T03:39:56;1.80;;;0.20;;
69937;SDS011;57248;47.320;15.998;2023-04-25T03:42:48;1.98;;;0.20;;
69937;SDS011;57248;47.320;15.998;2023-04-25T03:45:20;1.30;;;0.10;;
69937;SDS011;57248;47.320;15.998;2023-04-25T03:47:52;2.10;;;0.20;;
69937;SDS011;57248;47.320;15.998;2023-04-25T03:50:27;1.60;;;0.30;;
69937;SDS011;57248;47.320;15.998;2023-04-25T03:52:59;2.53;;;0.47;;
69937;SDS011;57248;47.320;15.998;2023-04-25T03:55:46;1.50;;;0.30;;
69937;SDS011;57248;47.320;15.998;2023-04-25T03:58:19;1.45;;;0.25;;
69937;SDS011;57248;47.320;15.998;2023-04-25T04:00:51;2.25;;;0.30;;
69937;SDS011;57248;47.320;15.998;2023-04-25T04:03:23;1.77;;;0.30;;
69937;SDS011;57248;47.320;15.998;2023-04-25T04:05:55;4.55;;;0.40;;
69937;SDS011;57248;47.320;15.998;2023-04-25T04:08:27;1.48;;;0.20;;
69937;SDS011;57248;47.320;15.998;2023-04-25T04:10:59;1.25;;;0.20;;
69937;SDS011;57248;47.320;15.998;2023-04-25T04:13:32;1.80;;;0.20;;
69937;SDS011;57248;47.320;15.998;2023-04-25T04:16:05;1.80;;;0.20;;
69937;SDS011;57248;47.320;15.998;2023-04-25T04:18:46;2.60;;;0.38;;
69937;SDS011;57248;47.320;15.998;2023-04-25T04:21:18;3.38;;;0.60;;
69937;SDS011;57248;47.320;15.998;2023-04-25T04:23:50;5.40;;;1.55;;
69937;SDS011;57248;47.320;15.998;2023-04-25T04:26:24;5.35;;;0.80;;
69937;SDS011;57248;47.320;15.998;2023-04-25T04:29:06;4.27;;;0.60;;
69937;SDS011;57248;47.320;15.998;2023-04-25T04:31:48;3.10;;;0.50;;
69937;SDS011;57248;47.320;15.998;2023-04-25T04:34:21;3.42;;;0.50;;
69937;SDS011;57248;47.320;15.998;2023-04-25T04:36:53;4.13;;;1.17;;
69937;SDS011;57248;47.320;15.998;2023-04-25T04:39:25;3.30;;;1.20;;
69937;SDS011;57248;47.320;15.998;2023-04-25T04:42:15;3.10;;;0.80;;
69937;SDS011;57248;47.320;15.998;2023-04-25T04:45:05;3.85;;;1.20;;
69937;SDS011;57248;47.320;15.998;2023-04-25T04:47:58;11.75;;;4.88;;
69937;SDS011;57248;47.320;15.998;2023-04-25T04:50:48;7.07;;;3.00;;
69937;SDS011;57248;47.320;15.998;2023-04-25T04:53:41;7.20;;;2.30;;
69937;SDS011;57248;47.320;15.998;2023-04-25T04:56:19;5.90;;;2.40;;
69937;SDS011;57248;47.320;15.998;2023-04-25T04:59:10;8.55;;;2.40;;
69937;SDS011;57248;47.320;15.998;2023-04-25T05:02:02;5.03;;;1.67;;
69937;SDS011;57248;47.320;15.998;2023-04-25T05:04:55;5.70;;;1.90;;
69937;SDS011;57248;47.320;15.998;2023-04-25T05:08:03;8.98;;;2.60;;
69937;SDS011;57248;47.320;15.998;2023-04-25T05:10:54;6.43;;;1.80;;
69937;SDS011;57248;47.320;15.998;2023-04-25T05:13:35;6.35;;;1.30;;
69937;SDS011;57248;47.320;15.998;2023-04-25T05:16:40;5.60;;;1.30;;
69937;SDS011;57248;47.320;15.998;2023-04-25T05:19:22;4.00;;;0.98;;
69937;SDS011;57248;47.320;15.998;2023-04-25T05:22:12;3.72;;;0.90;;
69937;SDS011;57248;47.320;15.998;2023-04-25T05:24:59;4.73;;;1.50;;
69937;SDS011;57248;47.320;15.998;2023-04-25T05:27:57;5.32;;;1.50;;
69937;SDS011;57248;47.320;15.998;2023-04-25T05:30:43;5.20;;;2.00;;
69937;SDS011;57248;47.320;15.998;2023-04-25T05:33:18;5.45;;;2.28;;
69937;SDS011;57248;47.320;15.998;2023-04-25T05:35:50;4.43;;;1.80;;
69937;SDS011;57248;47.320;15.998;2023-04-25T05:38:15;4.93;;;2.00;;
69937;SDS011;57248;47.320;15.998;2023-04-25T05:41:17;8.23;;;2.95;;
69937;SDS011;57248;47.320;15.998;2023-04-25T05:43:59;6.07;;;2.63;;
69937;SDS011;57248;47.320;15.998;2023-04-25T05:47:04;3.63;;;0.77;;
69937;SDS011;57248;47.320;15.998;2023-04-25T05:49:54;2.08;;;0.30;;
69937;SDS011;57248;47.320;15.998;2023-04-25T05:52:43;1.90;;;0.35;;
69937;SDS011;57248;47.320;15.998;2023-04-25T05:55:41;2.58;;;0.40;;
69937;SDS011;57248;47.320;15.998;2023-04-25T05:58:21;1.30;;;0.20;;
69937;SDS011;57248;47.320;15.998;2023-04-25T06:00:56;1.42;;;0.20;;
69937;SDS011;57248;47.320;15.998;2023-04-25T06:03:28;1.45;;;0.22;;
69937;SDS011;57248;47.320;15.998;2023-04-25T06:06:01;2.53;;;0.28;;
69937;SDS011;57248;47.320;15.998;2023-04-25T06:08:33;1.50;;;0.30;;
69937;SDS011;57248;47.320;15.998;2023-04-25T06:11:05;3.97;;;0.30;;
69937;SDS011;57248;47.320;15.998;2023-04-25T06:13:37;1.50;;;0.30;;
69937;SDS011;57248;47.320;15.998;2023-04-25T06:16:11;1.10;;;0.20;;
69937;SDS011;57248;47.320;15.998;2023-04-25T06:18:49;2.33;;;0.30;;
69937;SDS011;57248;47.320;15.998;2023-04-25T06:21:21;2.03;;;0.40;;
69937;SDS011;57248;47.320;15.998;2023-04-25T06:23:53;1.30;;;0.30;;
69937;SDS011;57248;47.320;15.998;2023-04-25T06:26:26;1.80;;;0.30;;
69937;SDS011;57248;47.320;15.998;2023-04-25T06:28:58;1.77;;;0.32;;
69937;SDS011;57248;47.320;15.998;2023-04-25T06:31:30;1.95;;;0.30;;
69937;SDS011;57248;47.320;15.998;2023-04-25T06:34:06;1.77;;;0.30;;
69937;SDS011;57248;47.320;15.998;2023-04-25T06:36:40;1.70;;;0.30;;
69937;SDS011;57248;47.320;15.998;2023-04-25T06:39:14;2.38;;;0.20;;
69937;SDS011;57248;47.320;15.998;2023-04-25T06:41:47;1.70;;;0.30;;
69937;SDS011;57248;47.320;15.998;2023-04-25T06:44:42;1.80;;;0.50;;
69937;SDS011;57248;47.320;15.998;2023-04-25T06:47:17;1.35;;;0.30;;
69937;SDS011;57248;47.320;15.998;2023-04-25T06:49:49;1.30;;;0.30;;
69937;SDS011;57248;47.320;15.998;2023-04-25T06:52:15;1.17;;;0.25;;
69937;SDS011;57248;47.320;15.998;2023-04-25T06:54:51;1.75;;;0.40;;
69937;SDS011;57248;47.320;15.998;2023-04-25T06:57:35;2.28;;;0.35;;
69937;SDS011;57248;47.320;15.998;2023-04-25T07:00:27;1.33;;;0.30;;
69937;SDS011;57248;47.320;15.998;2023-04-25T07:03:00;1.20;;;0.40;;
69937;SDS011;57248;47.320;15.998;2023-04-25T07:05:32;1.23;;;0.47;;
69937;SDS011;57248;47.320;15.998;2023-04-25T07:08:05;1.65;;;0.52;;
69937;SDS011;57248;47.320;15.998;2023-04-25T07:10:37;1.45;;;0.50;;
69937;SDS011;57248;47.320;15.998;2023-04-25T07:13:11;3.15;;;0.68;;
69937;SDS011;57248;47.320;15.998;2023-04-25T07:15:43;3.13;;;0.80;;
69937;SDS011;57248;47.320;15.998;2023-04-25T07:18:25;1.90;;;0.77;;
69937;SDS011;57248;47.320;15.998;2023-04-25T07:20:58;3.13;;;0.90;;
69937;SDS011;57248;47.320;15.998;2023-04-25T07:23:32;2.03;;;1.08;;
69937;SDS011;57248;47.320;15.998;2023-04-25T07:26:09;2.85;;;1.05;;
69937;SDS011;57248;47.320;15.998;2023-04-25T07:29:02;2.57;;;1.60;;
69937;SDS011;57248;47.320;15.998;2023-04-25T07:31:34;2.55;;;1.60;;
69937;SDS011;57248;47.320;15.998;2023-04-25T07:34:06;2.50;;;1.88;;
69937;SDS011;57248;47.320;15.998;2023-04-25T07:36:38;2.97;;;2.30;;
69937;SDS011;57248;47.320;15.998;2023-04-25T07:39:11;3.22;;;2.75;;
69937;SDS011;57248;47.320;15.998;2023-04-25T07:41:44;2.80;;;2.47;;
69937;SDS011;57248;47.320;15.998;2023-04-25T07:44:15;3.30;;;3.00;;
69937;SDS011;57248;47.320;15.998;2023-04-25T07:46:47;4.65;;;3.42;;
69937;SDS011;57248;47.320;15.998;2023-04-25T07:49:13;4.10;;;3.80;;
69937;SDS011;57248;47.320;15.998;2023-04-25T07:51:45;3.95;;;3.58;;
69937;SDS011;57248;47.320;15.998;2023-04-25T07:54:19;4.13;;;3.50;;
69937;SDS011;57248;47.320;15.998;2023-04-25T07:57:00;4.43;;;4.03;;
69937;SDS011;57248;47.320;15.998;2023-04-25T07:59:35;2.57;;;2.03;;
69937;SDS011;57248;47.320;15.998;2023-04-25T08:02:07;2.58;;;1.60;;
69937;SDS011;57248;47.320;15.998;2023-04-25T08:04:39;2.63;;;1.70;;
69937;SDS011;57248;47.320;15.998;2023-04-25T08:07:15;3.20;;;1.77;;
69937;SDS011;57248;47.320;15.998;2023-04-25T08:09:51;3.53;;;3.08;;
69937;SDS011;57248;47.320;15.998;2023-04-25T08:12:31;2.40;;;1.00;;
69937;SDS011;57248;47.320;15.998;2023-04-25T08:15:11;2.25;;;0.63;;
69937;SDS011;57248;47.320;15.998;2023-04-25T08:17:50;2.03;;;0.70;;
69937;SDS011;57248;47.320;15.998;2023-04-25T08:20:22;3.55;;;0.73;;
69937;SDS011;57248;47.320;15.998;2023-04-25T08:22:58;2.55;;;1.40;;
69937;SDS011;57248;47.320;15.998;2023-04-25T08:25:44;2.17;;;1.00;;
69937;SDS011;57248;47.320;15.998;2023-04-25T08:28:19;2.17;;;1.17;;
69937;SDS011;57248;47.320;15.998;2023-04-25T08:30:51;4.40;;;1.50;;
69937;SDS011;57248;47.320;15.998;2023-04-25T08:33:30;3.65;;;1.75;;
69937;SDS011;57248;47.320;15.998;2023-04-25T08:36:24;2.67;;;1.40;;
69937;SDS011;57248;47.320;15.998;2023-04-25T08:38:56;2.87;;;1.30;;
69937;SDS011;57248;47.320;15.998;2023-04-25T08:41:29;2.22;;;1.05;;
69937;SDS011;57248;47.320;15.998;2023-04-25T08:44:01;3.85;;;1.42;;
69937;SDS011;57248;47.320;15.998;2023-04-25T08:46:37;3.33;;;1.50;;
69937;SDS011;57248;47.320;15.998;2023-04-25T08:49:22;3.92;;;3.50;;
69937;SDS011;57248;47.320;15.998;2023-04-25T08:52:06;3.10;;;2.43;;
69937;SDS011;57248;47.320;15.998;2023-04-25T08:54:48;5.00;;;3.70;;
69937;SDS011;57248;47.320;15.998;2023-04-25T08:57:21;4.07;;;3.42;;
69937;SDS011;57248;47.320;15.998;2023-04-25T08:59:55;4.35;;;3.92;;
69937;SDS011;57248;47.320;15.998;2023-04-25T09:02:32;5.05;;;4.65;;
69937;SDS011;57248;47.320;15.998;2023-04-25T09:05:04;2.97;;;1.83;;
69937;SDS011;57248;47.320;15.998;2023-04-25T09:07:38;2.90;;;1.10;;
69937;SDS011;57248;47.320;15.998;2023-04-25T09:10:10;1.58;;;0.63;;
69937;SDS011;57248;47.320;15.998;2023-04-25T09:12:43;1.50;;;0.50;;
69937;SDS011;57248;47.320;15.998;2023-04-25T09:15:15;2.10;;;0.68;;
69937;SDS011;57248;47.320;15.998;2023-04-25T09:17:56;4.45;;;1.38;;
69937;SDS011;57248;47.320;15.998;2023-04-25T09:20:41;2.27;;;0.67;;
69937;SDS011;57248;47.320;15.998;2023-04-25T09:23:18;1.63;;;0.50;;
69937;SDS011;57248;47.320;15.998;2023-04-25T09:25:52;1.85;;;0.45;;
69937;SDS011;57248;47.320;15.998;2023-04-25T09:28:26;2.35;;;0.45;;
69937;SDS011;57248;47.320;15.998;2023-04-25T09:31:00;2.05;;;0.77;;
69937;SDS011;57248;47.320;15.998;2023-04-25T09:33:43;1.63;;;0.50;;
69937;SDS011;57248;47.320;15.998;2023-04-25T09:36:14;1.58;;;0.50;;
69937;SDS011;57248;47.320;15.998;2023-04-25T09:38:58;2.05;;;0.70;;
69937;SDS011;57248;47.320;15.998;2023-04-25T09:41:33;2.42;;;0.80;;
69937;SDS011;57248;47.320;15.998;2023-04-25T09:44:12;1.80;;;0.80;;
69937;SDS011;57248;47.320;15.998;2023-04-25T09:46:44;8.83;;;2.20;;
69937;SDS011;57248;47.320;15.998;2023-04-25T09:49:27;16.63;;;5.63;;
69937;SDS011;57248;47.320;15.998;2023-04-25T09:52:14;9.75;;;2.70;;
69937;SDS011;57248;47.320;15.998;2023-04-25T09:54:57;17.67;;;6.22;;
69937;SDS011;57248;47.320;15.998;2023-04-25T09:57:32;4.35;;;1.02;;
69937;SDS011;57248;47.320;15.998;2023-04-25T10:00:04;2.97;;;0.57;;
69937;SDS011;57248;47.320;15.998;2023-04-25T10:02:41;5.93;;;1.60;;
69937;SDS011;57248;47.320;15.998;2023-04-25T10:05:43;4.40;;;1.00;;
69937;SDS011;57248;47.320;15.998;2023-04-25T10:08:17;2.88;;;1.35;;
69937;SDS011;57248;47.320;15.998;2023-04-25T10:10:52;9.00;;;3.83;;
69937;SDS011;57248;47.320;15.998;2023-04-25T10:13:24;2.50;;;1.10;;
69937;SDS011;57248;47.320;15.998;2023-04-25T10:15:58;2.10;;;0.77;;
69937;SDS011;57248;47.320;15.998;2023-04-25T10:18:32;2.50;;;0.75;;
69937;SDS011;57248;47.320;15.998;2023-04-25T10:21:04;1.50;;;0.60;;
69937;SDS011;57248;47.320;15.998;2023-04-25T10:23:38;2.33;;;0.90;;
69937;SDS011;57248;47.320;15.998;2023-04-25T10:26:11;1.53;;;0.50;;
69937;SDS011;57248;47.320;15.998;2023-04-25T10:31:38;1.73;;;0.50;;
69937;SDS011;57248;47.320;15.998;2023-04-25T10:34:17;1.33;;;0.40;;
69937;SDS011;57248;47.320;15.998;2023-04-25T10:36:50;2.03;;;0.63;;
69937;SDS011;57248;47.320;15.998;2023-04-25T10:39:24;1.60;;;0.50;;
69937;SDS011;57248;47.320;15.998;2023-04-25T10:41:58;2.55;;;0.47;;
69937;SDS011;57248;47.320;15.998;2023-04-25T10:44:33;1.77;;;0.70;;
69937;SDS011;57248;47.320;15.998;2023-04-25T10:47:07;1.98;;;0.60;;
69937;SDS011;57248;47.320;15.998;2023-04-25T10:49:42;1.42;;;0.60;;
69937;SDS011;57248;47.320;15.998;2023-04-25T10:55:04;5.47;;;1.15;;
69937;SDS011;57248;47.320;15.998;2023-04-25T10:57:43;4.88;;;1.73;;
69937;SDS011;57248;47.320;15.998;2023-04-25T11:00:18;4.00;;;2.47;;
69937;SDS011;57248;47.320;15.998;2023-04-25T11:02:58;3.10;;;2.50;;
69937;SDS011;57248;47.320;15.998;2023-04-25T11:05:36;5.50;;;5.00;;
69937;SDS011;57248;47.320;15.998;2023-04-25T11:08:11;4.40;;;4.00;;
69937;SDS011;57248;47.320;15.998;2023-04-25T11:10:43;3.45;;;2.63;;
69937;SDS011;57248;47.320;15.998;2023-04-25T11:13:15;3.20;;;2.78;;
69937;SDS011;57248;47.320;15.998;2023-04-25T11:15:51;2.92;;;2.10;;
69937;SDS011;57248;47.320;15.998;2023-04-25T11:18:25;2.37;;;1.40;;
69937;SDS011;57248;47.320;15.998;2023-04-25T11:20:58;2.67;;;1.23;;
69937;SDS011;57248;47.320;15.998;2023-04-25T11:23:30;2.58;;;1.00;;
69937;SDS011;57248;47.320;15.998;2023-04-25T11:26:03;4.00;;;0.90;;
69937;SDS011;57248;47.320;15.998;2023-04-25T11:28:35;2.15;;;0.98;;
69937;SDS011;57248;47.320;15.998;2023-04-25T11:31:08;2.17;;;1.00;;
69937;SDS011;57248;47.320;15.998;2023-04-25T11:33:41;3.00;;;1.30;;
69937;SDS011;57248;47.320;15.998;2023-04-25T11:36:08;3.15;;;2.60;;
69937;SDS011;57248;47.320;15.998;2023-04-25T11:38:41;2.88;;;2.40;;
69937;SDS011;57248;47.320;15.998;2023-04-25T11:41:13;2.88;;;1.67;;
69937;SDS011;57248;47.320;15.998;2023-04-25T11:43:45;1.83;;;1.13;;
69937;SDS011;57248;47.320;15.998;2023-04-25T11:46:17;2.42;;;1.73;;
69937;SDS011;57248;47.320;15.998;2023-04-25T11:48:51;1.58;;;1.20;;
69937;SDS011;57248;47.320;15.998;2023-04-25T11:51:41;2.85;;;1.30;;
69937;SDS011;57248;47.320;15.998;2023-04-25T11:54:16;1.85;;;1.02;;
69937;SDS011;57248;47.320;15.998;2023-04-25T11:56:49;6.30;;;1.60;;
69937;SDS011;57248;47.320;15.998;2023-04-25T11:59:24;2.58;;;0.90;;
69937;SDS011;57248;47.320;15.998;2023-04-25T12:01:57;2.05;;;1.20;;
69937;SDS011;57248;47.320;15.998;2023-04-25T12:04:30;2.25;;;1.10;;
69937;SDS011;57248;47.320;15.998;2023-04-25T12:07:02;5.30;;;1.83;;
69937;SDS011;57248;47.320;15.998;2023-04-25T12:09:34;2.43;;;1.43;;
69937;SDS011;57248;47.320;15.998;2023-04-25T12:12:09;4.43;;;1.80;;
69937;SDS011;57248;47.320;15.998;2023-04-25T12:14:41;3.53;;;2.13;;
69937;SDS011;57248;47.320;15.998;2023-04-25T12:17:28;3.13;;;2.70;;
69937;SDS011;57248;47.320;15.998;2023-04-25T12:20:05;3.25;;;1.65;;
69937;SDS011;57248;47.320;15.998;2023-04-25T12:22:40;5.03;;;1.27;;
69937;SDS011;57248;47.320;15.998;2023-04-25T12:31:03;3.08;;;2.15;;
69937;SDS011;57248;47.320;15.998;2023-04-25T12:33:37;8.05;;;4.05;;
69937;SDS011;57248;47.320;15.998;2023-04-25T12:36:11;1.80;;;1.30;;
69937;SDS011;57248;47.320;15.998;2023-04-25T12:38:44;4.07;;;1.73;;
69937;SDS011;57248;47.320;15.998;2023-04-25T12:41:16;4.03;;;1.25;;
69937;SDS011;57248;47.320;15.998;2023-04-25T12:43:49;4.15;;;1.50;;
69937;SDS011;57248;47.320;15.998;2023-04-25T12:46:21;5.03;;;1.73;;
69937;SDS011;57248;47.320;15.998;2023-04-25T12:48:54;4.80;;;1.33;;
69937;SDS011;57248;47.320;15.998;2023-04-25T12:51:26;2.58;;;1.10;;
69937;SDS011;57248;47.320;15.998;2023-04-25T12:54:07;2.70;;;1.50;;
69937;SDS011;57248;47.320;15.998;2023-04-25T12:56:41;5.65;;;1.50;;
69937;SDS011;57248;47.320;15.998;2023-04-25T12:59:13;1.70;;;1.17;;
69937;SDS011;57248;47.320;15.998;2023-04-25T13:01:45;7.30;;;1.73;;
69937;SDS011;57248;47.320;15.998;2023-04-25T13:04:11;5.00;;;1.20;;
69937;SDS011;57248;47.320;15.998;2023-04-25T13:06:42;2.40;;;1.33;;
69937;SDS011;57248;47.320;15.998;2023-04-25T13:09:14;2.07;;;1.33;;
69937;SDS011;57248;47.320;15.998;2023-04-25T13:11:47;2.00;;;1.40;;
69937;SDS011;57248;47.320;15.998;2023-04-25T13:14:19;3.03;;;1.50;;
69937;SDS011;57248;47.320;15.998;2023-04-25T13:16:51;2.30;;;1.70;;
69937;SDS011;57248;47.320;15.998;2023-04-25T13:19:23;2.90;;;1.77;;
69937;SDS011;57248;47.320;15.998;2023-04-25T13:21:57;2.63;;;2.00;;
69937;SDS011;57248;47.320;15.998;2023-04-25T13:24:30;2.40;;;1.70;;
69937;SDS011;57248;47.320;15.998;2023-04-25T13:26:56;4.10;;;2.43;;
69937;SDS011;57248;47.320;15.998;2023-04-25T13:29:28;2.10;;;1.70;;
69937;SDS011;57248;47.320;15.998;2023-04-25T13:32:01;3.17;;;1.83;;
69937;SDS011;57248;47.320;15.998;2023-04-25T13:34:33;3.40;;;1.92;;
69937;SDS011;57248;47.320;15.998;2023-04-25T13:37:05;2.83;;;2.20;;
69937;SDS011;57248;47.320;15.998;2023-04-25T13:39:37;3.50;;;2.10;;
69937;SDS011;57248;47.320;15.998;2023-04-25T13:42:09;2.97;;;2.53;;
69937;SDS011;57248;47.320;15.998;2023-04-25T13:44:42;2.67;;;2.47;;
69937;SDS011;57248;47.320;15.998;2023-04-25T13:47:14;4.30;;;2.38;;
69937;SDS011;57248;47.320;15.998;2023-04-25T13:49:46;2.40;;;1.33;;
69937;SDS011;57248;47.320;15.998;2023-04-25T13:52:18;1.93;;;0.90;;
69937;SDS011;57248;47.320;15.998;2023-04-25T13:54:50;4.30;;;0.80;;
69937;SDS011;57248;47.320;15.998;2023-04-25T13:57:22;1.88;;;0.90;;
69937;SDS011;57248;47.320;15.998;2023-04-25T13:59:56;2.47;;;0.68;;
69937;SDS011;57248;47.320;15.998;2023-04-25T14:02:31;2.55;;;0.75;;
69937;SDS011;57248;47.320;15.998;2023-04-25T14:05:04;2.23;;;0.60;;
69937;SDS011;57248;47.320;15.998;2023-04-25T14:07:38;2.13;;;0.50;;
69937;SDS011;57248;47.320;15.998;2023-04-25T14:10:10;1.17;;;0.35;;
69937;SDS011;57248;47.320;15.998;2023-04-25T14:12:42;2.75;;;0.40;;
69937;SDS011;57248;47.320;15.998;2023-04-25T14:15:14;2.05;;;0.10;;
69937;SDS011;57248;47.320;15.998;2023-04-25T14:17:46;1.53;;;0.10;;
69937;SDS011;57248;47.320;15.998;2023-04-25T14:20:20;0.57;;;0.10;;
69937;SDS011;57248;47.320;15.998;2023-04-25T14:22:46;0.55;;;0.10;;
69937;SDS011;57248;47.320;15.998;2023-04-25T14:25:18;1.45;;;0.20;;
69937;SDS011;57248;47.320;15.998;2023-04-25T14:27:50;4.53;;;1.77;;
69937;SDS011;57248;47.320;15.998;2023-04-25T14:30:22;2.05;;;0.63;;
69937;SDS011;57248;47.320;15.998;2023-04-25T14:32:56;2.45;;;0.10;;
69937;SDS011;57248;47.320;15.998;2023-04-25T14:35:27;0.60;;;0.10;;
69937;SDS011;57248;47.320;15.998;2023-04-25T14:38:00;0.85;;;0.10;;
69937;SDS011;57248;47.320;15.998;2023-04-25T14:40:32;0.60;;;0.10;;
69937;SDS011;57248;47.320;15.998;2023-04-25T14:42:58;1.80;;;0.20;;
69937;SDS011;57248;47.320;15.998;2023-04-25T14:45:29;0.83;;;0.37;;
69937;SDS011;57248;47.320;15.998;2023-04-25T14:48:01;0.70;;;0.20;;
69937;SDS011;57248;47.320;15.998;2023-04-25T14:50:33;1.70;;;0.20;;
69937;SDS011;57248;47.320;15.998;2023-04-25T14:53:05;1.23;;;0.30;;
69937;SDS011;57248;47.320;15.998;2023-04-25T14:55:37;0.93;;;0.20;;
69937;SDS011;57248;47.320;15.998;2023-04-25T14:58:09;1.83;;;0.23;;
69937;SDS011;57248;47.320;15.998;2023-04-25T15:00:41;1.95;;;0.10;;
69937;SDS011;57248;47.320;15.998;2023-04-25T15:03:14;0.80;;;0.10;;
69937;SDS011;57248;47.320;15.998;2023-04-25T15:05:48;2.00;;;0.20;;
69937;SDS011;57248;47.320;15.998;2023-04-25T15:08:20;1.33;;;0.20;;
69937;SDS011;57248;47.320;15.998;2023-04-25T15:10:52;11.03;;;4.30;;
69937;SDS011;57248;47.320;15.998;2023-04-25T15:13:24;4.85;;;1.05;;
69937;SDS011;57248;47.320;15.998;2023-04-25T15:15:57;3.45;;;0.70;;
69937;SDS011;57248;47.320;15.998;2023-04-25T15:18:29;2.00;;;0.20;;
69937;SDS011;57248;47.320;15.998;2023-04-25T15:21:01;1.63;;;0.20;;
69937;SDS011;57248;47.320;15.998;2023-04-25T15:23:33;1.90;;;0.30;;
69937;SDS011;57248;47.320;15.998;2023-04-25T15:26:05;2.10;;;0.30;;
69937;SDS011;57248;47.320;15.998;2023-04-25T15:28:37;1.80;;;0.50;;
69937;SDS011;57248;47.320;15.998;2023-04-25T15:31:09;2.03;;;0.60;;